createdAt,value
2023-03-06T00:00:02.245Z,8.73
2023-03-06T00:03:44.016Z,9.07
2023-03-06T00:07:25.887Z,8.95
2023-03-06T00:11:07.747Z,9.32
2023-03-06T00:14:49.614Z,9.45
2023-03-06T00:18:31.320Z,9.40
2023-03-06T00:22:14.968Z,8.75
2023-03-06T00:25:56.725Z,8.48
2023-03-06T00:29:38.531Z,9.27
2023-03-06T00:33:20.212Z,9.30
2023-03-06T00:37:02.015Z,9.15
2023-03-06T00:40:43.792Z,8.55
2023-03-06T00:44:25.859Z,8.20
2023-03-06T00:48:07.712Z,7.53
2023-03-06T00:51:49.582Z,8.07
2023-03-06T00:55:33.585Z,8.98
2023-03-06T00:59:15.754Z,9.88
2023-03-06T01:02:57.612Z,9.57
2023-03-06T01:06:39.396Z,9.65
2023-03-06T01:10:21.278Z,9.52
2023-03-06T01:14:03.223Z,9.05
2023-03-06T01:17:45.182Z,8.98
2023-03-06T01:21:26.937Z,9.32
2023-03-06T01:25:09.261Z,8.70
2023-03-06T01:28:51.025Z,8.57
2023-03-06T01:32:33.660Z,9.40
2023-03-06T01:36:15.488Z,8.50
2023-03-06T01:39:57.316Z,9.52
2023-03-06T01:43:42.422Z,9.98
2023-03-06T01:47:24.212Z,9.57
2023-03-06T01:51:06.018Z,9.95
2023-03-06T01:54:53.960Z,9.63
2023-03-06T01:58:36.352Z,9.80
2023-03-06T02:02:18.311Z,9.82
2023-03-06T02:06:00.106Z,10.27
2023-03-06T02:09:41.838Z,8.48
2023-03-06T02:13:23.611Z,9.88
2023-03-06T02:17:05.508Z,9.35
2023-03-06T02:20:52.104Z,9.55
2023-03-06T02:24:57.237Z,9.55
2023-03-06T02:28:39.920Z,9.32
2023-03-06T02:32:21.708Z,9.02
2023-03-06T02:36:06.011Z,8.98
2023-03-06T02:39:53.230Z,9.23
2023-03-06T02:43:38.527Z,8.80
2023-03-06T02:47:20.344Z,9.55
2023-03-06T02:51:02.314Z,9.27
2023-03-06T02:54:44.260Z,9.52
2023-03-06T02:58:26.125Z,10.90
2023-03-06T03:02:07.968Z,9.10
2023-03-06T03:05:49.919Z,13.27
2023-03-06T03:09:36.760Z,12.50
2023-03-06T03:13:19.626Z,9.75
2023-03-06T03:17:02.069Z,8.73
2023-03-06T03:20:43.847Z,7.57
2023-03-06T03:24:26.464Z,7.72
2023-03-06T03:28:08.242Z,9.02
2023-03-06T03:31:50.086Z,8.65
2023-03-06T03:35:31.888Z,8.13
2023-03-06T03:39:13.827Z,7.72
2023-03-06T03:42:55.572Z,6.70
2023-03-06T03:46:37.683Z,6.75
2023-03-06T03:50:19.611Z,5.28
2023-03-06T03:54:01.568Z,5.78
2023-03-06T03:57:43.479Z,6.35
2023-03-06T04:01:25.336Z,6.07
2023-03-06T04:05:07.366Z,4.95
2023-03-06T04:08:49.189Z,4.88
2023-03-06T04:12:31.136Z,5.03
2023-03-06T04:16:13.082Z,6.35
2023-03-06T04:19:54.798Z,4.55
2023-03-06T04:23:36.537Z,4.88
2023-03-06T04:27:18.462Z,4.68
2023-03-06T04:31:00.210Z,4.82
2023-03-06T04:34:42.179Z,5.28
2023-03-06T04:38:23.948Z,5.57
2023-03-06T04:42:05.833Z,4.97
2023-03-06T04:45:47.630Z,4.82
2023-03-06T04:49:29.431Z,4.45
2023-03-06T04:53:11.212Z,4.60
2023-03-06T04:56:52.950Z,5.18
2023-03-06T05:00:34.857Z,5.68
2023-03-06T05:04:16.769Z,5.22
2023-03-06T05:07:58.627Z,6.18
2023-03-06T05:11:40.394Z,5.30
2023-03-06T05:15:22.264Z,6.15
2023-03-06T05:19:04.010Z,6.90
2023-03-06T05:22:45.890Z,7.50
2023-03-06T05:26:27.688Z,8.55
2023-03-06T05:30:12.345Z,8.27
2023-03-06T05:33:54.156Z,8.07
2023-03-06T05:37:35.895Z,7.85
2023-03-06T05:41:17.769Z,8.20
2023-03-06T05:44:59.505Z,6.25
2023-03-06T05:48:41.335Z,6.70
2023-03-06T05:52:23.281Z,6.85
2023-03-06T05:56:08.948Z,6.65
2023-03-06T05:59:52.026Z,6.22
2023-03-06T06:03:33.760Z,6.68
2023-03-06T06:07:17.114Z,6.72
2023-03-06T06:14:40.852Z,6.38
2023-03-06T06:18:22.644Z,7.60
2023-03-06T06:22:04.835Z,5.63
2023-03-06T06:25:46.614Z,5.45
2023-03-06T06:29:28.671Z,5.93
2023-03-06T06:33:10.391Z,6.25
2023-03-06T06:36:53.583Z,5.65
2023-03-06T06:44:18.572Z,5.55
2023-03-06T06:48:00.673Z,5.20
2023-03-06T06:51:42.500Z,5.38
2023-03-06T06:55:24.280Z,5.20
2023-03-06T06:59:16.145Z,5.55
2023-03-06T07:02:58.968Z,7.10
2023-03-06T07:06:41.663Z,5.43
2023-03-06T07:10:23.540Z,6.63
2023-03-06T07:14:05.407Z,6.55
2023-03-06T07:17:49.550Z,5.72
2023-03-06T07:21:31.853Z,6.18
2023-03-06T07:25:13.777Z,5.40
2023-03-06T07:28:55.831Z,6.18
2023-03-06T07:32:37.650Z,6.05
2023-03-06T07:36:20.269Z,5.63
2023-03-06T07:40:02.129Z,6.07
2023-03-06T07:43:45.676Z,5.20
2023-03-06T07:47:27.481Z,4.97
2023-03-06T07:51:16.744Z,5.70
2023-03-06T07:54:59.037Z,6.60
2023-03-06T07:58:44.266Z,5.78
2023-03-06T08:02:26.024Z,6.10
2023-03-06T08:06:15.609Z,5.47
2023-03-06T08:09:57.357Z,5.53
2023-03-06T08:13:39.786Z,5.90
2023-03-06T08:17:21.568Z,5.90
2023-03-06T08:21:10.358Z,5.90
2023-03-06T08:24:55.233Z,5.32
2023-03-06T08:28:37.092Z,5.72
2023-03-06T08:32:19.056Z,6.30
2023-03-06T08:36:02.366Z,5.93
2023-03-06T08:43:25.851Z,5.13
2023-03-06T08:47:07.630Z,5.75
2023-03-06T08:50:49.996Z,5.75
2023-03-06T08:54:32.727Z,6.13
2023-03-06T08:58:14.870Z,5.97
2023-03-06T09:01:56.734Z,6.00
2023-03-06T09:05:40.577Z,6.38
2023-03-06T09:09:22.315Z,6.28
2023-03-06T09:13:04.229Z,5.70
2023-03-06T09:16:46.135Z,5.18
2023-03-06T09:20:27.983Z,5.72
2023-03-06T09:24:09.841Z,4.93
2023-03-06T09:28:08.589Z,5.80
2023-03-06T09:31:52.146Z,6.20
2023-03-06T09:35:33.878Z,6.15
2023-03-06T09:39:15.603Z,5.78
2023-03-06T09:42:57.367Z,5.32
2023-03-06T09:47:20.463Z,5.00
2023-03-06T09:51:10.612Z,5.43
2023-03-06T09:54:52.286Z,5.45
2023-03-06T09:58:41.589Z,5.25
2023-03-06T10:02:37.650Z,5.63
2023-03-06T10:06:34.453Z,5.38
2023-03-06T10:10:42.432Z,5.75
2023-03-06T10:14:48.741Z,5.07
2023-03-06T10:18:31.967Z,4.75
2023-03-06T10:22:13.650Z,4.63
2023-03-06T10:26:08.117Z,3.50
2023-03-06T10:30:03.992Z,3.83
2023-03-06T10:33:57.096Z,4.53
2023-03-06T10:37:38.808Z,4.53
2023-03-06T10:41:29.839Z,4.00
2023-03-06T10:45:15.172Z,4.35
2023-03-06T10:48:59.309Z,2.67
2023-03-06T10:52:41.052Z,3.03
2023-03-06T10:56:36.611Z,3.30
2023-03-06T11:00:29.733Z,3.40
2023-03-06T11:04:28.767Z,3.83
2023-03-06T11:08:22.556Z,3.55
2023-03-06T11:12:39.767Z,3.80
2023-03-06T11:16:32.931Z,2.80
2023-03-06T11:20:19.250Z,3.08
2023-03-06T11:24:07.637Z,2.53
2023-03-06T11:27:57.443Z,2.20
2023-03-06T11:31:48.027Z,3.20
2023-03-06T11:35:43.006Z,3.95
2023-03-06T11:39:41.828Z,2.90
2023-03-06T11:43:36.282Z,2.30
2023-03-06T11:47:24.096Z,2.00
2023-03-06T11:51:19.837Z,1.90
2023-03-06T11:55:01.965Z,1.95
2023-03-06T11:58:46.734Z,1.40
2023-03-06T12:02:43.831Z,1.42
2023-03-06T12:06:52.950Z,1.55
2023-03-06T12:10:57.490Z,2.25
2023-03-06T12:15:03.613Z,1.98
2023-03-06T12:19:19.058Z,2.65
2023-03-06T12:23:16.830Z,1.83
2023-03-06T12:27:10.050Z,1.70
2023-03-06T12:31:08.043Z,2.05
2023-03-06T12:34:58.758Z,3.35
2023-03-06T12:39:08.459Z,1.80
2023-03-06T12:43:18.644Z,2.08
2023-03-06T12:47:08.113Z,1.90
2023-03-06T12:50:50.851Z,1.90
2023-03-06T12:54:37.560Z,1.60
2023-03-06T12:58:28.524Z,2.20
2023-03-06T13:02:29.166Z,1.80
2023-03-06T13:06:39.251Z,1.75
2023-03-06T13:10:28.896Z,3.55
2023-03-06T13:14:26.641Z,1.85
2023-03-06T13:18:46.145Z,1.40
2023-03-06T13:22:29.405Z,1.98
2023-03-06T13:30:44.079Z,1.70
2023-03-06T13:34:31.813Z,1.92
2023-03-06T13:38:34.149Z,2.10
2023-03-06T13:42:29.903Z,1.95
2023-03-06T13:46:27.306Z,2.00
2023-03-06T13:50:19.645Z,1.98
2023-03-06T13:54:29.403Z,2.78
2023-03-06T13:58:35.520Z,1.85
2023-03-06T14:02:41.150Z,1.60
2023-03-06T14:06:34.938Z,2.38
2023-03-06T14:10:20.733Z,1.60
2023-03-06T14:14:02.578Z,1.95
2023-03-06T14:18:00.159Z,2.05
2023-03-06T14:21:51.249Z,1.88
2023-03-06T14:25:34.070Z,1.88
2023-03-06T14:29:19.896Z,1.80
2023-03-06T14:33:11.676Z,1.60
2023-03-06T14:37:01.593Z,1.80
2023-03-06T14:40:45.022Z,1.95
2023-03-06T14:44:26.696Z,1.85
2023-03-06T14:48:15.327Z,1.60
2023-03-06T14:52:02.306Z,1.63
2023-03-06T14:55:53.217Z,1.83
2023-03-06T15:00:07.023Z,2.33
2023-03-06T15:07:33.420Z,2.88
2023-03-06T15:11:15.210Z,3.13
2023-03-06T15:14:58.514Z,2.85
2023-03-06T15:22:41.346Z,2.50
2023-03-06T15:26:36.740Z,2.28
2023-03-06T15:30:36.009Z,3.03
2023-03-06T15:34:25.735Z,2.40
2023-03-06T15:38:24.682Z,2.33
2023-03-06T15:42:16.099Z,2.33
2023-03-06T15:46:01.755Z,2.13
2023-03-06T15:49:43.724Z,3.50
2023-03-06T15:53:25.663Z,4.65
2023-03-06T15:57:23.268Z,4.05
2023-03-06T16:01:05.616Z,2.60
2023-03-06T16:04:52.033Z,3.20
2023-03-06T16:08:33.994Z,1.80
2023-03-06T16:12:18.423Z,1.92
2023-03-06T16:16:00.221Z,1.40
2023-03-06T16:19:43.220Z,1.77
2023-03-06T16:23:25.243Z,2.40
2023-03-06T16:27:07.158Z,1.98
2023-03-06T16:30:49.014Z,1.70
2023-03-06T16:34:30.804Z,2.00
2023-03-06T16:38:12.540Z,2.75
2023-03-06T16:41:55.467Z,1.83
2023-03-06T16:45:39.640Z,2.30
2023-03-06T16:49:24.126Z,2.60
2023-03-06T16:53:06.685Z,2.75
2023-03-06T16:56:48.453Z,2.03
2023-03-06T17:00:33.017Z,2.60
2023-03-06T17:04:14.802Z,2.10
2023-03-06T17:07:56.838Z,2.50
2023-03-06T17:11:38.894Z,2.47
2023-03-06T17:15:20.959Z,2.10
2023-03-06T17:19:02.717Z,1.80
2023-03-06T17:22:44.538Z,2.60
2023-03-06T17:26:26.338Z,2.63
2023-03-06T17:30:08.917Z,2.30
2023-03-06T17:34:00.360Z,2.50
2023-03-06T17:37:42.137Z,1.80
2023-03-06T17:41:24.798Z,2.40
2023-03-06T17:45:09.290Z,2.42
2023-03-06T17:48:51.154Z,2.20
2023-03-06T17:52:33.415Z,2.47
2023-03-06T17:56:15.714Z,2.47
2023-03-06T17:59:57.472Z,2.90
2023-03-06T18:03:39.885Z,2.97
2023-03-06T18:07:24.281Z,3.50
2023-03-06T18:11:07.916Z,2.95
2023-03-06T18:14:50.689Z,2.20
2023-03-06T18:18:33.230Z,2.40
2023-03-06T18:22:15.085Z,2.60
2023-03-06T18:26:11.609Z,3.13
2023-03-06T18:29:55.444Z,2.72
2023-03-06T18:33:37.194Z,2.30
2023-03-06T18:37:19.000Z,2.85
2023-03-06T18:41:00.804Z,2.58
2023-03-06T18:44:43.985Z,2.30
2023-03-06T18:48:25.761Z,2.28
2023-03-06T18:52:07.699Z,2.42
2023-03-06T18:55:51.290Z,3.88
2023-03-06T18:59:33.254Z,2.75
2023-03-06T19:03:15.888Z,2.00
2023-03-06T19:06:57.642Z,3.65
2023-03-06T19:10:42.767Z,2.70
2023-03-06T19:14:24.797Z,2.78
2023-03-06T19:18:06.513Z,2.65
2023-03-06T19:21:48.236Z,3.00
2023-03-06T19:25:29.999Z,3.97
2023-03-06T19:29:11.779Z,3.53
2023-03-06T19:32:54.664Z,3.70
2023-03-06T19:36:38.731Z,12.20
2023-03-06T19:40:20.703Z,11.20
2023-03-06T19:44:03.450Z,6.45
2023-03-06T19:47:45.276Z,4.10
2023-03-06T19:51:27.720Z,3.50
2023-03-06T19:55:10.463Z,3.78
2023-03-06T19:58:52.897Z,4.43
2023-03-06T20:02:35.647Z,4.60
2023-03-06T20:06:19.750Z,4.75
2023-03-06T20:10:02.834Z,3.53
2023-03-06T20:13:47.503Z,3.17
2023-03-06T20:17:30.049Z,2.97
2023-03-06T20:21:14.134Z,3.67
2023-03-06T20:24:55.840Z,3.70
2023-03-06T20:28:39.420Z,5.45
2023-03-06T20:32:21.290Z,3.78
2023-03-06T20:36:03.347Z,2.53
2023-03-06T20:39:45.442Z,2.75
2023-03-06T20:43:27.323Z,2.47
2023-03-06T20:47:09.644Z,2.70
2023-03-06T20:51:31.482Z,3.30
2023-03-06T20:55:13.235Z,3.10
2023-03-06T20:58:55.557Z,3.40
2023-03-06T21:02:37.378Z,5.32
2023-03-06T21:06:19.882Z,2.67
2023-03-06T21:10:01.943Z,2.57
2023-03-06T21:13:44.008Z,2.45
2023-03-06T21:17:25.854Z,2.30
2023-03-06T21:21:09.646Z,1.90
2023-03-06T21:24:51.527Z,1.80
2023-03-06T21:28:33.379Z,2.15
2023-03-06T21:32:15.248Z,1.88
2023-03-06T21:35:57.059Z,2.20
2023-03-06T21:39:38.838Z,2.17
2023-03-06T21:43:20.531Z,2.20
2023-03-06T21:47:02.873Z,2.90
2023-03-06T21:50:45.137Z,2.25
2023-03-06T21:54:29.368Z,3.20
2023-03-06T21:58:11.066Z,5.22
2023-03-06T22:01:52.839Z,9.60
2023-03-06T22:05:34.735Z,15.30
2023-03-06T22:09:18.969Z,5.22
2023-03-06T22:13:00.767Z,3.70
2023-03-06T22:16:42.486Z,3.90
2023-03-06T22:20:24.718Z,4.20
2023-03-06T22:24:06.877Z,3.72
2023-03-06T22:27:48.836Z,3.25
2023-03-06T22:31:31.099Z,4.57
2023-03-06T22:35:13.256Z,3.47
2023-03-06T22:38:57.391Z,4.30
2023-03-06T22:42:39.543Z,3.67
2023-03-06T22:46:21.694Z,3.70
2023-03-06T22:50:04.548Z,4.55
2023-03-06T22:53:47.749Z,5.57
2023-03-06T22:57:30.027Z,4.93
2023-03-06T23:01:20.700Z,3.90
2023-03-06T23:05:02.832Z,4.05
2023-03-06T23:08:49.093Z,3.90
2023-03-06T23:12:30.871Z,4.00
2023-03-06T23:16:13.011Z,3.80
2023-03-06T23:19:54.734Z,3.22
2023-03-06T23:23:37.596Z,3.50
2023-03-06T23:27:22.522Z,4.10
2023-03-06T23:31:09.059Z,3.70
2023-03-06T23:34:51.346Z,4.10
2023-03-06T23:38:33.558Z,3.90
2023-03-06T23:42:15.762Z,3.85
2023-03-06T23:45:58.275Z,4.15
2023-03-06T23:49:40.106Z,3.53
2023-03-06T23:53:22.201Z,3.97
2023-03-06T23:57:06.787Z,3.60
